Flight Track Log - Related Links

Times and Time Zones

All times are in EDT time to prevent confusion due to time zone crossing. See the SWA407 flight status page for this flight to view local times or setup timezone preferences in your user account.

Time Position Orientation Groundspeed Altitude Reporting Facility
EDT Latitude Longitude Course Direction KTS MPH feet Rate Location/Type
Sun 11:11:49 PM 37.6333 -122.3667 360° North 152 175 900  Level Northern Cal TRACON
Sun 11:12:43 PM 37.6833 -122.3667 360° North 187 215 2,700 2,747 Climbing Northern Cal TRACON
Sun 11:14:59 PM 37.6072 -122.4889 232° Southwest 253 291 9,600 2,893 Climbing Oakland Center
Sun 11:16:00 PM 37.5247 -122.4986 185° South 288 331 12,200 2,732 Climbing Oakland Center
Sun 11:17:02 PM 37.4281 -122.5114 186° South 336 387 15,200 2,976 Climbing Oakland Center
Sun 11:18:03 PM 37.3269 -122.5242 186° South 357 411 18,300 2,951 Climbing Oakland Center
Sun 11:19:04 PM 37.2242 -122.5375 186° South 368 423 21,200 2,656 Climbing Oakland Center
Sun 11:20:05 PM 37.1186 -122.5300 177° South 398 458 23,700 2,361 Climbing Oakland Center
Sun 11:21:06 PM 37.0264 -122.4489 145° Southeast 402 463 26,000 2,115 Climbing Oakland Center
Sun 11:22:07 PM 36.9311 -122.3650 145° Southeast 412 474 28,000 1,820 Climbing Oakland Center
Sun 11:23:08 PM 36.8336 -122.2756 144° Southeast 429 494 29,700 1,918 Climbing Oakland Center
Sun 11:24:09 PM 36.7117 -122.1672 145° Southeast 444 511 31,900 2,000 Climbing Oakland Center
Sun 11:25:11 PM 36.6117 -122.0758 144° Southeast 447 514 33,800 1,610 Climbing Oakland Center
Sun 11:26:12 PM 36.5108 -121.9867 145° Southeast 446 513 35,200 1,672 Climbing Oakland Center
Sun 11:27:13 PM 36.4097 -121.8953 144° Southeast 449 517 37,200 1,770 Climbing Oakland Center
Sun 11:28:14 PM 36.3117 -121.8097 145° Southeast 437 503 38,800 885 Climbing Oakland Center
Sun 11:29:15 PM 36.2222 -121.7308 145° Southeast 434 499 39,000 98 Climbing Oakland Center
Sun 11:30:16 PM 36.1211 -121.6019 134° Southeast 433 498 39,000  Level Oakland Center
Sun 11:31:17 PM 36.0453 -121.4847 129° Southeast 438 504 39,000  Level Oakland Center
Sun 11:32:18 PM 35.9675 -121.3692 130° Southeast 438 504 39,000  Level Oakland Center
Sun 11:33:19 PM 35.8900 -121.2531 129° Southeast 439 505 39,000  Level Oakland Center
Sun 11:34:20 PM 35.8125 -121.1369 129° Southeast 440 506 39,000  Level Oakland Center
Sun 11:35:21 PM 35.7356 -121.0219 129° Southeast 438 504 39,000  Level Oakland Center
Sun 11:36:22 PM 35.6583 -120.9078 130° Southeast 435 501 39,000  Level Oakland Center
Sun 11:37:23 PM 35.5803 -120.7925 130° Southeast 439 505 39,000  Level Oakland Center
Sun 11:38:24 PM 35.5022 -120.6772 130° Southeast 441 507 39,000  Level Oakland Center
Sun 11:39:25 PM 35.4239 -120.5631 130° Southeast 441 507 39,000  Level Oakland Center
Sun 11:40:26 PM 35.3431 -120.4450 130° Southeast 442 509 39,000  Level Oakland Center
Sun 11:41:27 PM 35.2644 -120.3261 129° Southeast 446 513 39,000  Level Oakland Center
Sun 11:42:28 PM 35.1772 -120.1994 130° Southeast 442 509 39,000  Level Oakland Center
Sun 11:43:29 PM 35.0992 -120.0864 130° Southeast 438 504 39,000  Level Oakland Center
Sun 11:44:30 PM 34.9861 -120.0239 156° South 449 517 39,000  Level Oakland Center
Sun 11:45:31 PM 34.8644 -119.9992 171° South 445 512 39,000  Level Oakland Center
Sun 11:46:32 PM 34.7558 -119.9392 156° South 436 502 39,000  Level Oakland Center
Sun 11:47:33 PM 34.6897 -119.8181 124° Southeast 432 497 39,000  Level Oakland Center
Sun 11:48:34 PM 34.6114 -119.6722 123° Southeast 430 495 39,000  Level Oakland Center
Sun 11:49:08 PM 34.5903 -119.6356 125° Southeast 427 491 39,000  Level Los Angeles Center
Sun 11:50:10 PM 34.5131 -119.4911 123° Southeast 427 491 39,000  Level Los Angeles Center
Sun 11:51:11 PM 34.4472 -119.3719 124° Southeast 424 488 39,000  Level Los Angeles Center
Sun 11:52:13 PM 34.3819 -119.2517 123° Southeast 428 493 39,000  Level Los Angeles Center
Sun 11:53:14 PM 34.3172 -119.1336 124° Southeast 425 489 39,000  Level Los Angeles Center
Sun 11:54:16 PM 34.2514 -119.0136 124° Southeast 429 494 39,000 -244 Level Los Angeles Center
Sun 11:55:17 PM 34.1744 -118.8725 123° Southeast 421 484 38,500 -683 Descending Los Angeles Center
Sun 11:56:19 PM 34.1106 -118.7531 123° Southeast 422 486 37,600 -927 Descending Los Angeles Center
Sun 11:57:20 PM 34.0433 -118.6322 124° Southeast 430 495 36,600 -927 Descending Los Angeles Center
Sun 11:58:22 PM 33.9781 -118.5131 123° Southeast 427 491 35,700 -927 Descending Los Angeles Center
Sun 11:59:23 PM 33.9081 -118.3981 126° Southeast 428 493 34,700 -934 Descending Los Angeles Center
Mon 12:00:24 AM 33.8306 -118.3042 135° Southeast 445 512 33,800 -2,000 Descending Los Angeles Center
Mon 12:01:26 AM 33.7325 -118.1708 131° Southeast 463 533 30,600 -2,323 Descending Los Angeles Center
Mon 12:02:28 AM 33.6478 -118.0667 134° Southeast 446 513 29,000 -1,854 Descending Los Angeles Center
Mon 12:03:29 AM 33.5664 -117.9644 134° Southeast 430 495 26,800 -2,146 Descending Los Angeles Center
Mon 12:04:31 AM 33.4894 -117.8678 134° Southeast 410 472 24,600 -2,302 Descending Los Angeles Center
Mon 12:04:55 AM 33.4500 -117.8167 133° Southeast 381 438 23,500 -2,286 Descending Southern California TRACON
Mon 12:05:55 AM 33.3833 -117.7333 134° Southeast 377 434 21,400 -1,898 Descending Southern California TRACON
Mon 12:06:33 AM 33.3439 -117.6847 134° Southeast 381 438 20,400 -2,100 Descending Los Angeles Center
Mon 12:07:35 AM 33.2622 -117.5808 133° Southeast 365 420 17,900 -2,268 Descending Los Angeles Center
Mon 12:07:55 AM 33.2333 -117.5667 158° South 361 415 17,300 -2,175 Descending Southern California TRACON
Mon 12:08:55 AM 33.1667 -117.4833 134° Southeast 355 409 15,000 -2,330 Descending Southern California TRACON
Mon 12:09:38 AM 33.1089 -117.4411 149° Southeast 349 402 13,300 -2,135 Descending Los Angeles Center
Mon 12:10:39 AM 33.0269 -117.3775 147° Southeast 350 403 11,300 -2,026 Descending Los Angeles Center
Mon 12:10:55 AM 33.0000 -117.3667 161° South 340 391 10,700 -1,184 Descending Southern California TRACON
Mon 12:11:55 AM 32.9333 -117.3000 140° Southeast 303 349 9,800 -1,250 Descending Southern California TRACON
Mon 12:12:55 AM 32.8667 -117.2500 148° Southeast 297 342 8,200 -1,278 Descending Southern California TRACON
Mon 12:13:43 AM 32.8317 -117.2153 140° Southeast 295 339 7,500 -1,400 Descending Los Angeles Center
Mon 12:14:55 AM 32.7833 -117.0833 114° Southeast 271 312 5,400 -1,182 Descending Southern California TRACON
Mon 12:15:55 AM 32.7500 -117.0167 121° Southeast 227 261 4,900 -650 Descending Southern California TRACON
Mon 12:16:55 AM 32.7167 -116.9667 128° Southeast 207 238 4,100 -950 Descending Southern California TRACON
Mon 12:17:55 AM 32.6833 -117.0167 232° Southwest 191 220 3,000 -1,050 Descending Southern California TRACON
Mon 12:18:55 AM 32.7000 -117.0667 292° West 169 194 2,000 -893 Descending Southern California TRACON
Mon 12:19:56 AM 32.7167 -117.1167 292° West 145 167 1,200 -769 Descending Southern California TRACON
Mon 12:20:52 AM 32.7236 -117.1514 283° West 144 166 500 -564 Descending Los Angeles Center
Mon 12:21:53 AM 32.7364 -117.2000 287° West 139 160 100 -393 Descending Los Angeles Center
Mon 12:23:00 AM 32.7333 -117.1833 90° East  Level FlightAware Approximate
Mon 12:30:00 AM 32.7336 -117.1897 90° East  Level Estimated

Login

Don't have an account? Register now (free) for customized features, flight alerts, and more!